sensor_id;sensor_type;location;lat;lon;timestamp;P1;durP1;ratioP1;P2;durP2;ratioP2
26040;SDS011;13816;53.628;9.950;2023-02-15T00:01:38;64.93;;;35.97;;
26040;SDS011;13816;53.628;9.950;2023-02-15T00:04:05;80.07;;;39.00;;
26040;SDS011;13816;53.628;9.950;2023-02-15T00:06:31;70.63;;;38.60;;
26040;SDS011;13816;53.628;9.950;2023-02-15T00:08:58;61.10;;;35.70;;
26040;SDS011;13816;53.628;9.950;2023-02-15T00:11:24;70.00;;;37.73;;
26040;SDS011;13816;53.628;9.950;2023-02-15T00:16:32;69.70;;;38.40;;
26040;SDS011;13816;53.628;9.950;2023-02-15T00:18:58;80.43;;;38.33;;
26040;SDS011;13816;53.628;9.950;2023-02-15T00:21:27;72.23;;;36.33;;
26040;SDS011;13816;53.628;9.950;2023-02-15T00:23:54;83.13;;;39.90;;
26040;SDS011;13816;53.628;9.950;2023-02-15T00:26:20;85.03;;;41.57;;
26040;SDS011;13816;53.628;9.950;2023-02-15T00:28:46;92.47;;;40.40;;
26040;SDS011;13816;53.628;9.950;2023-02-15T00:31:12;90.23;;;40.70;;
26040;SDS011;13816;53.628;9.950;2023-02-15T00:33:39;79.73;;;40.30;;
26040;SDS011;13816;53.628;9.950;2023-02-15T00:36:06;84.23;;;39.50;;
26040;SDS011;13816;53.628;9.950;2023-02-15T00:38:33;82.03;;;38.93;;
26040;SDS011;13816;53.628;9.950;2023-02-15T00:41:00;88.07;;;39.33;;
26040;SDS011;13816;53.628;9.950;2023-02-15T00:43:28;80.83;;;39.67;;
26040;SDS011;13816;53.628;9.950;2023-02-15T00:45:54;89.13;;;42.53;;
26040;SDS011;13816;53.628;9.950;2023-02-15T00:48:20;85.00;;;39.13;;
26040;SDS011;13816;53.628;9.950;2023-02-15T00:50:48;77.57;;;38.70;;
26040;SDS011;13816;53.628;9.950;2023-02-15T00:53:15;87.00;;;40.83;;
26040;SDS011;13816;53.628;9.950;2023-02-15T00:55:41;91.80;;;42.33;;
26040;SDS011;13816;53.628;9.950;2023-02-15T00:58:09;81.93;;;40.87;;
26040;SDS011;13816;53.628;9.950;2023-02-15T01:00:35;98.83;;;40.17;;
26040;SDS011;13816;53.628;9.950;2023-02-15T01:03:02;93.33;;;42.60;;
26040;SDS011;13816;53.628;9.950;2023-02-15T01:05:31;88.77;;;42.20;;
26040;SDS011;13816;53.628;9.950;2023-02-15T01:07:57;91.33;;;40.60;;
26040;SDS011;13816;53.628;9.950;2023-02-15T01:10:24;86.77;;;41.07;;
26040;SDS011;13816;53.628;9.950;2023-02-15T01:12:51;87.10;;;43.60;;
26040;SDS011;13816;53.628;9.950;2023-02-15T01:15:17;93.93;;;45.73;;
26040;SDS011;13816;53.628;9.950;2023-02-15T01:17:43;87.40;;;44.23;;
26040;SDS011;13816;53.628;9.950;2023-02-15T01:20:14;93.10;;;42.90;;
26040;SDS011;13816;53.628;9.950;2023-02-15T01:22:40;94.60;;;41.00;;
26040;SDS011;13816;53.628;9.950;2023-02-15T01:25:07;96.67;;;44.87;;
26040;SDS011;13816;53.628;9.950;2023-02-15T01:27:33;118.90;;;44.80;;
26040;SDS011;13816;53.628;9.950;2023-02-15T01:29:59;94.90;;;44.60;;
26040;SDS011;13816;53.628;9.950;2023-02-15T01:32:25;96.57;;;41.10;;
26040;SDS011;13816;53.628;9.950;2023-02-15T01:34:52;96.87;;;44.03;;
26040;SDS011;13816;53.628;9.950;2023-02-15T01:37:18;89.10;;;43.53;;
26040;SDS011;13816;53.628;9.950;2023-02-15T01:39:44;109.90;;;44.73;;
26040;SDS011;13816;53.628;9.950;2023-02-15T01:42:11;84.93;;;40.90;;
26040;SDS011;13816;53.628;9.950;2023-02-15T01:44:48;97.17;;;44.20;;
26040;SDS011;13816;53.628;9.950;2023-02-15T01:49:58;102.17;;;44.00;;
26040;SDS011;13816;53.628;9.950;2023-02-15T01:52:26;115.00;;;43.90;;
26040;SDS011;13816;53.628;9.950;2023-02-15T01:54:52;116.33;;;43.70;;
26040;SDS011;13816;53.628;9.950;2023-02-15T01:57:19;104.63;;;44.97;;
26040;SDS011;13816;53.628;9.950;2023-02-15T01:59:49;121.73;;;44.50;;
26040;SDS011;13816;53.628;9.950;2023-02-15T02:02:16;113.57;;;43.60;;
26040;SDS011;13816;53.628;9.950;2023-02-15T02:04:45;87.00;;;40.67;;
26040;SDS011;13816;53.628;9.950;2023-02-15T02:07:14;93.77;;;43.30;;
26040;SDS011;13816;53.628;9.950;2023-02-15T02:09:41;122.03;;;42.57;;
26040;SDS011;13816;53.628;9.950;2023-02-15T02:12:08;91.40;;;41.80;;
26040;SDS011;13816;53.628;9.950;2023-02-15T02:14:35;85.53;;;42.30;;
26040;SDS011;13816;53.628;9.950;2023-02-15T02:19:46;82.33;;;39.90;;
26040;SDS011;13816;53.628;9.950;2023-02-15T02:27:39;93.27;;;42.73;;
26040;SDS011;13816;53.628;9.950;2023-02-15T02:43:08;97.80;;;41.10;;
26040;SDS011;13816;53.628;9.950;2023-02-15T02:45:40;114.47;;;40.80;;
26040;SDS011;13816;53.628;9.950;2023-02-15T02:48:15;81.07;;;40.10;;
26040;SDS011;13816;53.628;9.950;2023-02-15T02:50:42;88.23;;;38.37;;
26040;SDS011;13816;53.628;9.950;2023-02-15T02:53:09;124.23;;;41.13;;
26040;SDS011;13816;53.628;9.950;2023-02-15T03:00:36;94.43;;;40.50;;
26040;SDS011;13816;53.628;9.950;2023-02-15T03:03:12;128.53;;;42.73;;
26040;SDS011;13816;53.628;9.950;2023-02-15T03:05:41;90.50;;;40.27;;
26040;SDS011;13816;53.628;9.950;2023-02-15T03:08:11;81.63;;;39.83;;
26040;SDS011;13816;53.628;9.950;2023-02-15T03:10:46;92.03;;;38.53;;
26040;SDS011;13816;53.628;9.950;2023-02-15T03:13:13;90.40;;;39.80;;
26040;SDS011;13816;53.628;9.950;2023-02-15T03:15:40;80.30;;;38.40;;
26040;SDS011;13816;53.628;9.950;2023-02-15T03:18:28;116.53;;;41.30;;
26040;SDS011;13816;53.628;9.950;2023-02-15T03:20:57;84.00;;;41.40;;
26040;SDS011;13816;53.628;9.950;2023-02-15T03:23:25;91.77;;;39.73;;
26040;SDS011;13816;53.628;9.950;2023-02-15T03:25:56;115.10;;;42.60;;
26040;SDS011;13816;53.628;9.950;2023-02-15T03:28:28;90.70;;;41.87;;
26040;SDS011;13816;53.628;9.950;2023-02-15T03:30:56;86.13;;;41.57;;
26040;SDS011;13816;53.628;9.950;2023-02-15T03:33:24;87.23;;;40.53;;
26040;SDS011;13816;53.628;9.950;2023-02-15T03:35:53;87.57;;;40.40;;
26040;SDS011;13816;53.628;9.950;2023-02-15T03:38:25;88.40;;;39.70;;
26040;SDS011;13816;53.628;9.950;2023-02-15T03:40:54;93.00;;;41.60;;
26040;SDS011;13816;53.628;9.950;2023-02-15T03:43:45;125.07;;;39.63;;
26040;SDS011;13816;53.628;9.950;2023-02-15T03:46:17;80.67;;;38.20;;
26040;SDS011;13816;53.628;9.950;2023-02-15T03:48:46;95.07;;;41.00;;
26040;SDS011;13816;53.628;9.950;2023-02-15T03:51:20;97.67;;;43.07;;
26040;SDS011;13816;53.628;9.950;2023-02-15T03:54:09;86.43;;;41.17;;
26040;SDS011;13816;53.628;9.950;2023-02-15T03:56:39;100.50;;;41.13;;
26040;SDS011;13816;53.628;9.950;2023-02-15T03:59:06;88.37;;;40.30;;
26040;SDS011;13816;53.628;9.950;2023-02-15T04:02:00;81.50;;;38.90;;
26040;SDS011;13816;53.628;9.950;2023-02-15T04:04:38;82.90;;;36.20;;
26040;SDS011;13816;53.628;9.950;2023-02-15T04:07:05;84.77;;;40.03;;
26040;SDS011;13816;53.628;9.950;2023-02-15T04:09:32;72.13;;;36.90;;
26040;SDS011;13816;53.628;9.950;2023-02-15T04:12:17;74.57;;;37.33;;
26040;SDS011;13816;53.628;9.950;2023-02-15T04:14:43;84.73;;;40.63;;
26040;SDS011;13816;53.628;9.950;2023-02-15T04:17:28;88.03;;;38.83;;
26040;SDS011;13816;53.628;9.950;2023-02-15T04:19:54;84.40;;;39.93;;
26040;SDS011;13816;53.628;9.950;2023-02-15T04:22:39;72.17;;;37.10;;
26040;SDS011;13816;53.628;9.950;2023-02-15T04:25:24;76.63;;;37.20;;
26040;SDS011;13816;53.628;9.950;2023-02-15T04:27:51;71.57;;;36.10;;
26040;SDS011;13816;53.628;9.950;2023-02-15T04:30:18;80.67;;;35.80;;
26040;SDS011;13816;53.628;9.950;2023-02-15T04:32:45;70.93;;;35.33;;
26040;SDS011;13816;53.628;9.950;2023-02-15T04:35:11;69.47;;;34.30;;
26040;SDS011;13816;53.628;9.950;2023-02-15T04:37:38;78.20;;;36.90;;
26040;SDS011;13816;53.628;9.950;2023-02-15T04:40:05;71.20;;;35.40;;
26040;SDS011;13816;53.628;9.950;2023-02-15T04:42:31;70.37;;;36.30;;
26040;SDS011;13816;53.628;9.950;2023-02-15T04:44:58;62.37;;;32.80;;
26040;SDS011;13816;53.628;9.950;2023-02-15T04:47:24;63.30;;;35.37;;
26040;SDS011;13816;53.628;9.950;2023-02-15T04:49:50;71.00;;;34.27;;
26040;SDS011;13816;53.628;9.950;2023-02-15T04:52:16;60.67;;;33.90;;
26040;SDS011;13816;53.628;9.950;2023-02-15T04:54:43;66.70;;;34.77;;
26040;SDS011;13816;53.628;9.950;2023-02-15T04:57:09;58.60;;;32.40;;
26040;SDS011;13816;53.628;9.950;2023-02-15T04:59:35;62.87;;;33.90;;
26040;SDS011;13816;53.628;9.950;2023-02-15T05:02:01;61.73;;;34.53;;
26040;SDS011;13816;53.628;9.950;2023-02-15T05:04:27;61.77;;;34.50;;
26040;SDS011;13816;53.628;9.950;2023-02-15T05:06:53;56.30;;;32.00;;
26040;SDS011;13816;53.628;9.950;2023-02-15T05:09:19;63.20;;;34.07;;
26040;SDS011;13816;53.628;9.950;2023-02-15T05:11:46;62.90;;;32.83;;
26040;SDS011;13816;53.628;9.950;2023-02-15T05:14:12;58.33;;;32.90;;
26040;SDS011;13816;53.628;9.950;2023-02-15T05:16:38;58.77;;;34.27;;
26040;SDS011;13816;53.628;9.950;2023-02-15T05:19:04;68.87;;;34.70;;
26040;SDS011;13816;53.628;9.950;2023-02-15T05:21:31;73.43;;;33.70;;
26040;SDS011;13816;53.628;9.950;2023-02-15T05:23:57;66.83;;;31.83;;
26040;SDS011;13816;53.628;9.950;2023-02-15T05:26:23;70.73;;;33.07;;
26040;SDS011;13816;53.628;9.950;2023-02-15T05:29:08;69.10;;;32.77;;
26040;SDS011;13816;53.628;9.950;2023-02-15T05:31:35;66.40;;;33.53;;
26040;SDS011;13816;53.628;9.950;2023-02-15T05:34:02;71.70;;;31.57;;
26040;SDS011;13816;53.628;9.950;2023-02-15T05:36:28;65.40;;;32.90;;
26040;SDS011;13816;53.628;9.950;2023-02-15T05:38:54;63.27;;;33.27;;
26040;SDS011;13816;53.628;9.950;2023-02-15T05:41:20;58.80;;;31.60;;
26040;SDS011;13816;53.628;9.950;2023-02-15T05:43:47;79.27;;;34.30;;
26040;SDS011;13816;53.628;9.950;2023-02-15T05:46:13;66.10;;;34.63;;
26040;SDS011;13816;53.628;9.950;2023-02-15T05:48:39;71.13;;;32.97;;
26040;SDS011;13816;53.628;9.950;2023-02-15T05:53:35;71.47;;;34.87;;
26040;SDS011;13816;53.628;9.950;2023-02-15T05:56:01;64.77;;;32.80;;
26040;SDS011;13816;53.628;9.950;2023-02-15T05:58:28;62.07;;;33.33;;
26040;SDS011;13816;53.628;9.950;2023-02-15T06:00:56;67.47;;;35.73;;
26040;SDS011;13816;53.628;9.950;2023-02-15T06:03:23;63.37;;;34.33;;
26040;SDS011;13816;53.628;9.950;2023-02-15T06:05:52;70.47;;;34.73;;
26040;SDS011;13816;53.628;9.950;2023-02-15T06:08:19;71.40;;;34.23;;
26040;SDS011;13816;53.628;9.950;2023-02-15T06:10:45;65.00;;;34.23;;
26040;SDS011;13816;53.628;9.950;2023-02-15T06:13:12;69.53;;;32.47;;
26040;SDS011;13816;53.628;9.950;2023-02-15T06:15:38;65.67;;;35.67;;
26040;SDS011;13816;53.628;9.950;2023-02-15T06:18:04;65.10;;;33.17;;
26040;SDS011;13816;53.628;9.950;2023-02-15T06:20:30;67.57;;;30.97;;
26040;SDS011;13816;53.628;9.950;2023-02-15T06:22:56;75.90;;;35.90;;
26040;SDS011;13816;53.628;9.950;2023-02-15T06:25:22;69.40;;;35.40;;
26040;SDS011;13816;53.628;9.950;2023-02-15T06:27:49;69.03;;;32.80;;
26040;SDS011;13816;53.628;9.950;2023-02-15T06:30:15;69.73;;;35.50;;
26040;SDS011;13816;53.628;9.950;2023-02-15T06:32:41;69.90;;;35.10;;
26040;SDS011;13816;53.628;9.950;2023-02-15T06:35:07;67.33;;;33.20;;
26040;SDS011;13816;53.628;9.950;2023-02-15T06:37:36;63.87;;;33.90;;
26040;SDS011;13816;53.628;9.950;2023-02-15T06:40:02;68.63;;;32.37;;
26040;SDS011;13816;53.628;9.950;2023-02-15T06:42:29;74.13;;;33.97;;
26040;SDS011;13816;53.628;9.950;2023-02-15T06:44:55;94.97;;;33.67;;
26040;SDS011;13816;53.628;9.950;2023-02-15T06:47:21;58.60;;;34.80;;
26040;SDS011;13816;53.628;9.950;2023-02-15T06:49:49;66.83;;;32.57;;
26040;SDS011;13816;53.628;9.950;2023-02-15T06:52:15;80.97;;;37.07;;
26040;SDS011;13816;53.628;9.950;2023-02-15T06:54:41;73.97;;;33.70;;
26040;SDS011;13816;53.628;9.950;2023-02-15T06:57:07;74.67;;;32.80;;
26040;SDS011;13816;53.628;9.950;2023-02-15T06:59:35;65.50;;;34.63;;
26040;SDS011;13816;53.628;9.950;2023-02-15T07:02:01;85.03;;;35.57;;
26040;SDS011;13816;53.628;9.950;2023-02-15T07:04:27;69.93;;;34.63;;
26040;SDS011;13816;53.628;9.950;2023-02-15T07:06:54;105.63;;;38.77;;
26040;SDS011;13816;53.628;9.950;2023-02-15T07:09:21;75.87;;;35.17;;
26040;SDS011;13816;53.628;9.950;2023-02-15T07:11:47;64.60;;;33.97;;
26040;SDS011;13816;53.628;9.950;2023-02-15T07:14:32;70.20;;;35.50;;
26040;SDS011;13816;53.628;9.950;2023-02-15T07:16:58;84.87;;;36.23;;
26040;SDS011;13816;53.628;9.950;2023-02-15T07:19:24;70.43;;;37.07;;
26040;SDS011;13816;53.628;9.950;2023-02-15T07:21:50;91.83;;;35.03;;
26040;SDS011;13816;53.628;9.950;2023-02-15T07:24:16;83.13;;;37.97;;
26040;SDS011;13816;53.628;9.950;2023-02-15T07:26:42;97.80;;;38.80;;
26040;SDS011;13816;53.628;9.950;2023-02-15T07:29:09;85.80;;;37.77;;
26040;SDS011;13816;53.628;9.950;2023-02-15T07:31:35;88.00;;;37.60;;
26040;SDS011;13816;53.628;9.950;2023-02-15T07:34:01;73.47;;;36.93;;
26040;SDS011;13816;53.628;9.950;2023-02-15T07:36:27;83.40;;;38.80;;
26040;SDS011;13816;53.628;9.950;2023-02-15T07:38:53;82.37;;;40.50;;
26040;SDS011;13816;53.628;9.950;2023-02-15T07:41:19;77.90;;;37.43;;
26040;SDS011;13816;53.628;9.950;2023-02-15T07:43:45;97.40;;;39.03;;
26040;SDS011;13816;53.628;9.950;2023-02-15T07:46:12;91.27;;;39.17;;
26040;SDS011;13816;53.628;9.950;2023-02-15T07:48:40;84.53;;;38.33;;
26040;SDS011;13816;53.628;9.950;2023-02-15T07:51:07;91.10;;;40.77;;
26040;SDS011;13816;53.628;9.950;2023-02-15T07:53:33;72.53;;;37.63;;
26040;SDS011;13816;53.628;9.950;2023-02-15T07:56:00;86.00;;;38.47;;
26040;SDS011;13816;53.628;9.950;2023-02-15T07:58:26;80.73;;;38.93;;
26040;SDS011;13816;53.628;9.950;2023-02-15T08:01:13;71.37;;;36.83;;
26040;SDS011;13816;53.628;9.950;2023-02-15T08:03:39;84.87;;;40.03;;
26040;SDS011;13816;53.628;9.950;2023-02-15T08:06:05;73.17;;;36.73;;
26040;SDS011;13816;53.628;9.950;2023-02-15T08:08:33;76.07;;;38.00;;
26040;SDS011;13816;53.628;9.950;2023-02-15T08:11:00;66.77;;;36.67;;
26040;SDS011;13816;53.628;9.950;2023-02-15T08:13:45;80.90;;;38.40;;
26040;SDS011;13816;53.628;9.950;2023-02-15T08:16:22;85.17;;;37.30;;
26040;SDS011;13816;53.628;9.950;2023-02-15T08:18:48;74.77;;;38.10;;
26040;SDS011;13816;53.628;9.950;2023-02-15T08:21:16;77.50;;;38.80;;
26040;SDS011;13816;53.628;9.950;2023-02-15T08:23:42;75.90;;;37.13;;
26040;SDS011;13816;53.628;9.950;2023-02-15T08:26:08;73.23;;;37.03;;
26040;SDS011;13816;53.628;9.950;2023-02-15T08:28:34;71.50;;;39.07;;
26040;SDS011;13816;53.628;9.950;2023-02-15T08:31:07;83.13;;;39.40;;
26040;SDS011;13816;53.628;9.950;2023-02-15T08:33:37;76.83;;;38.50;;
26040;SDS011;13816;53.628;9.950;2023-02-15T08:36:10;84.37;;;38.60;;
26040;SDS011;13816;53.628;9.950;2023-02-15T08:38:37;87.07;;;40.40;;
26040;SDS011;13816;53.628;9.950;2023-02-15T08:41:27;94.53;;;41.00;;
26040;SDS011;13816;53.628;9.950;2023-02-15T08:43:57;88.50;;;40.53;;
26040;SDS011;13816;53.628;9.950;2023-02-15T08:46:42;89.73;;;40.90;;
26040;SDS011;13816;53.628;9.950;2023-02-15T08:49:30;89.07;;;41.10;;
26040;SDS011;13816;53.628;9.950;2023-02-15T08:51:58;84.20;;;41.43;;
26040;SDS011;13816;53.628;9.950;2023-02-15T08:57:54;79.80;;;40.57;;
26040;SDS011;13816;53.628;9.950;2023-02-15T09:01:26;81.90;;;38.23;;
26040;SDS011;13816;53.628;9.950;2023-02-15T09:04:50;74.97;;;36.47;;
26040;SDS011;13816;53.628;9.950;2023-02-15T09:07:59;78.90;;;37.50;;
26040;SDS011;13816;53.628;9.950;2023-02-15T09:11:17;78.60;;;37.33;;
26040;SDS011;13816;53.628;9.950;2023-02-15T09:14:52;81.07;;;37.20;;
26040;SDS011;13816;53.628;9.950;2023-02-15T09:17:51;75.80;;;37.80;;
26040;SDS011;13816;53.628;9.950;2023-02-15T09:21:09;82.90;;;40.60;;
26040;SDS011;13816;53.628;9.950;2023-02-15T09:24:36;74.77;;;37.27;;
26040;SDS011;13816;53.628;9.950;2023-02-15T09:27:30;71.33;;;39.93;;
26040;SDS011;13816;53.628;9.950;2023-02-15T09:30:34;81.07;;;40.33;;
26040;SDS011;13816;53.628;9.950;2023-02-15T09:33:58;69.00;;;36.77;;
26040;SDS011;13816;53.628;9.950;2023-02-15T09:37:06;69.83;;;38.60;;
26040;SDS011;13816;53.628;9.950;2023-02-15T09:39:49;71.73;;;39.83;;
26040;SDS011;13816;53.628;9.950;2023-02-15T09:45:31;86.27;;;40.17;;
26040;SDS011;13816;53.628;9.950;2023-02-15T09:48:42;78.40;;;40.87;;
26040;SDS011;13816;53.628;9.950;2023-02-15T09:51:53;70.57;;;37.83;;
26040;SDS011;13816;53.628;9.950;2023-02-15T10:18:37;81.10;;;41.10;;
26040;SDS011;13816;53.628;9.950;2023-02-15T10:25:01;66.03;;;39.87;;
26040;SDS011;13816;53.628;9.950;2023-02-15T10:28:18;67.37;;;37.00;;
26040;SDS011;13816;53.628;9.950;2023-02-15T10:31:13;68.23;;;37.97;;
26040;SDS011;13816;53.628;9.950;2023-02-15T10:40:25;67.57;;;39.83;;
26040;SDS011;13816;53.628;9.950;2023-02-15T10:46:12;69.03;;;39.17;;
26040;SDS011;13816;53.628;9.950;2023-02-15T10:58:04;68.43;;;41.57;;
26040;SDS011;13816;53.628;9.950;2023-02-15T11:00:54;65.07;;;40.40;;
26040;SDS011;13816;53.628;9.950;2023-02-15T11:06:53;69.60;;;39.87;;
26040;SDS011;13816;53.628;9.950;2023-02-15T11:12:43;62.13;;;39.73;;
26040;SDS011;13816;53.628;9.950;2023-02-15T11:15:33;66.57;;;41.03;;
26040;SDS011;13816;53.628;9.950;2023-02-15T11:18:33;62.53;;;37.93;;
26040;SDS011;13816;53.628;9.950;2023-02-15T11:24:20;61.73;;;39.83;;
26040;SDS011;13816;53.628;9.950;2023-02-15T11:27:16;59.60;;;38.87;;
26040;SDS011;13816;53.628;9.950;2023-02-15T11:30:27;62.70;;;38.47;;
26040;SDS011;13816;53.628;9.950;2023-02-15T11:36:08;65.47;;;41.37;;
26040;SDS011;13816;53.628;9.950;2023-02-15T11:38:40;69.97;;;42.53;;
26040;SDS011;13816;53.628;9.950;2023-02-15T11:41:18;66.27;;;40.00;;
26040;SDS011;13816;53.628;9.950;2023-02-15T11:46:40;71.57;;;43.80;;
26040;SDS011;13816;53.628;9.950;2023-02-15T11:49:21;65.30;;;40.23;;
26040;SDS011;13816;53.628;9.950;2023-02-15T11:52:13;66.47;;;41.00;;
26040;SDS011;13816;53.628;9.950;2023-02-15T11:54:48;65.97;;;40.70;;
26040;SDS011;13816;53.628;9.950;2023-02-15T11:57:26;63.00;;;40.67;;
26040;SDS011;13816;53.628;9.950;2023-02-15T12:02:23;66.67;;;42.63;;
26040;SDS011;13816;53.628;9.950;2023-02-15T12:05:00;66.73;;;40.73;;
26040;SDS011;13816;53.628;9.950;2023-02-15T12:07:28;68.40;;;41.13;;
26040;SDS011;13816;53.628;9.950;2023-02-15T12:09:59;66.63;;;40.90;;
26040;SDS011;13816;53.628;9.950;2023-02-15T12:12:27;58.27;;;39.57;;
26040;SDS011;13816;53.628;9.950;2023-02-15T12:14:54;57.83;;;40.80;;
26040;SDS011;13816;53.628;9.950;2023-02-15T12:17:22;60.10;;;40.83;;
26040;SDS011;13816;53.628;9.950;2023-02-15T12:19:49;62.67;;;41.80;;
26040;SDS011;13816;53.628;9.950;2023-02-15T12:24:46;64.83;;;40.97;;
26040;SDS011;13816;53.628;9.950;2023-02-15T12:27:14;60.97;;;38.80;;
26040;SDS011;13816;53.628;9.950;2023-02-15T12:29:42;59.40;;;39.07;;
26040;SDS011;13816;53.628;9.950;2023-02-15T12:32:16;64.13;;;40.20;;
26040;SDS011;13816;53.628;9.950;2023-02-15T12:34:43;60.67;;;39.60;;
26040;SDS011;13816;53.628;9.950;2023-02-15T12:37:15;57.20;;;40.20;;
26040;SDS011;13816;53.628;9.950;2023-02-15T12:39:52;64.67;;;41.63;;
26040;SDS011;13816;53.628;9.950;2023-02-15T12:42:18;63.30;;;41.17;;
26040;SDS011;13816;53.628;9.950;2023-02-15T12:44:55;63.13;;;40.20;;
26040;SDS011;13816;53.628;9.950;2023-02-15T12:47:22;64.40;;;41.87;;
26040;SDS011;13816;53.628;9.950;2023-02-15T12:50:31;65.37;;;43.00;;
26040;SDS011;13816;53.628;9.950;2023-02-15T12:52:45;68.00;;;41.13;;
26040;SDS011;13816;53.628;9.950;2023-02-15T12:57:44;65.30;;;41.70;;
26040;SDS011;13816;53.628;9.950;2023-02-15T13:02:48;67.67;;;40.53;;
26040;SDS011;13816;53.628;9.950;2023-02-15T13:07:49;60.90;;;39.33;;
26040;SDS011;13816;53.628;9.950;2023-02-15T13:10:23;62.27;;;40.50;;
26040;SDS011;13816;53.628;9.950;2023-02-15T13:12:50;64.23;;;41.07;;
26040;SDS011;13816;53.628;9.950;2023-02-15T13:15:33;58.13;;;40.60;;
26040;SDS011;13816;53.628;9.950;2023-02-15T13:18:01;64.77;;;40.00;;
26040;SDS011;13816;53.628;9.950;2023-02-15T13:20:28;64.33;;;41.00;;
26040;SDS011;13816;53.628;9.950;2023-02-15T13:23:04;55.27;;;38.57;;
26040;SDS011;13816;53.628;9.950;2023-02-15T13:25:33;65.47;;;42.27;;
26040;SDS011;13816;53.628;9.950;2023-02-15T13:28:01;56.70;;;38.20;;
26040;SDS011;13816;53.628;9.950;2023-02-15T13:30:35;58.60;;;40.00;;
26040;SDS011;13816;53.628;9.950;2023-02-15T13:33:04;55.77;;;39.30;;
26040;SDS011;13816;53.628;9.950;2023-02-15T13:35:38;57.57;;;38.07;;
26040;SDS011;13816;53.628;9.950;2023-02-15T13:38:28;62.70;;;39.90;;
26040;SDS011;13816;53.628;9.950;2023-02-15T13:41:07;58.23;;;38.80;;
26040;SDS011;13816;53.628;9.950;2023-02-15T13:43:48;54.10;;;38.03;;
26040;SDS011;13816;53.628;9.950;2023-02-15T13:52:19;54.87;;;38.40;;
26040;SDS011;13816;53.628;9.950;2023-02-15T14:11:56;48.60;;;35.47;;
26040;SDS011;13816;53.628;9.950;2023-02-15T14:14:31;54.00;;;37.00;;
26040;SDS011;13816;53.628;9.950;2023-02-15T14:17:10;50.20;;;37.20;;
26040;SDS011;13816;53.628;9.950;2023-02-15T14:19:54;52.67;;;38.20;;
26040;SDS011;13816;53.628;9.950;2023-02-15T14:22:31;52.27;;;36.60;;
26040;SDS011;13816;53.628;9.950;2023-02-15T14:31:37;50.03;;;34.93;;
26040;SDS011;13816;53.628;9.950;2023-02-15T14:34:22;49.57;;;34.97;;
26040;SDS011;13816;53.628;9.950;2023-02-15T14:36:56;50.37;;;35.50;;
26040;SDS011;13816;53.628;9.950;2023-02-15T14:39:36;46.00;;;35.07;;
26040;SDS011;13816;53.628;9.950;2023-02-15T14:42:34;60.83;;;36.30;;
26040;SDS011;13816;53.628;9.950;2023-02-15T14:48:41;42.87;;;33.83;;
26040;SDS011;13816;53.628;9.950;2023-02-15T14:51:54;62.00;;;36.23;;
26040;SDS011;13816;53.628;9.950;2023-02-15T14:54:52;50.80;;;35.87;;
26040;SDS011;13816;53.628;9.950;2023-02-15T14:59:45;55.77;;;35.60;;
26040;SDS011;13816;53.628;9.950;2023-02-15T15:02:17;51.60;;;36.17;;
26040;SDS011;13816;53.628;9.950;2023-02-15T15:04:52;49.07;;;35.13;;
26040;SDS011;13816;53.628;9.950;2023-02-15T15:07:24;51.20;;;37.80;;
26040;SDS011;13816;53.628;9.950;2023-02-15T15:12:57;51.93;;;36.30;;
26040;SDS011;13816;53.628;9.950;2023-02-15T15:18:06;49.70;;;36.20;;
26040;SDS011;13816;53.628;9.950;2023-02-15T15:20:49;48.77;;;34.77;;
26040;SDS011;13816;53.628;9.950;2023-02-15T15:31:47;45.73;;;33.97;;
26040;SDS011;13816;53.628;9.950;2023-02-15T15:48:36;43.17;;;29.40;;
26040;SDS011;13816;53.628;9.950;2023-02-15T15:51:18;46.00;;;30.80;;
26040;SDS011;13816;53.628;9.950;2023-02-15T15:54:23;44.40;;;28.80;;
26040;SDS011;13816;53.628;9.950;2023-02-15T15:57:19;38.53;;;29.20;;
26040;SDS011;13816;53.628;9.950;2023-02-15T16:05:59;40.83;;;29.87;;
26040;SDS011;13816;53.628;9.950;2023-02-15T16:08:47;47.23;;;30.27;;
26040;SDS011;13816;53.628;9.950;2023-02-15T16:11:25;43.80;;;30.90;;
26040;SDS011;13816;53.628;9.950;2023-02-15T16:13:58;37.57;;;27.63;;
26040;SDS011;13816;53.628;9.950;2023-02-15T16:16:33;38.87;;;29.93;;
26040;SDS011;13816;53.628;9.950;2023-02-15T16:19:03;49.13;;;28.60;;
26040;SDS011;13816;53.628;9.950;2023-02-15T16:21:46;39.97;;;28.83;;
26040;SDS011;13816;53.628;9.950;2023-02-15T16:27:43;45.30;;;30.17;;
26040;SDS011;13816;53.628;9.950;2023-02-15T16:33:14;39.90;;;29.87;;
26040;SDS011;13816;53.628;9.950;2023-02-15T16:35:58;40.03;;;29.10;;
26040;SDS011;13816;53.628;9.950;2023-02-15T16:41:34;37.60;;;27.33;;
26040;SDS011;13816;53.628;9.950;2023-02-15T16:44:13;41.33;;;29.90;;
26040;SDS011;13816;53.628;9.950;2023-02-15T16:46:48;38.38;;;29.20;;
26040;SDS011;13816;53.628;9.950;2023-02-15T16:49:33;41.13;;;30.93;;
26040;SDS011;13816;53.628;9.950;2023-02-15T16:52:10;42.27;;;28.07;;
26040;SDS011;13816;53.628;9.950;2023-02-15T16:54:43;39.70;;;28.80;;
26040;SDS011;13816;53.628;9.950;2023-02-15T16:57:16;39.13;;;29.00;;
26040;SDS011;13816;53.628;9.950;2023-02-15T16:59:46;38.73;;;26.87;;
26040;SDS011;13816;53.628;9.950;2023-02-15T17:02:27;44.37;;;29.23;;
26040;SDS011;13816;53.628;9.950;2023-02-15T17:05:16;40.27;;;28.57;;
26040;SDS011;13816;53.628;9.950;2023-02-15T17:08:03;42.27;;;29.40;;
26040;SDS011;13816;53.628;9.950;2023-02-15T17:10:32;41.60;;;27.00;;
26040;SDS011;13816;53.628;9.950;2023-02-15T17:13:01;36.83;;;26.57;;
26040;SDS011;13816;53.628;9.950;2023-02-15T17:15:34;40.53;;;27.30;;
26040;SDS011;13816;53.628;9.950;2023-02-15T17:23:02;32.30;;;25.73;;
26040;SDS011;13816;53.628;9.950;2023-02-15T17:25:37;37.20;;;28.10;;
26040;SDS011;13816;53.628;9.950;2023-02-15T17:28:04;35.93;;;27.30;;
26040;SDS011;13816;53.628;9.950;2023-02-15T17:30:36;37.20;;;28.43;;
26040;SDS011;13816;53.628;9.950;2023-02-15T17:33:04;40.93;;;27.73;;
26040;SDS011;13816;53.628;9.950;2023-02-15T17:35:44;38.47;;;29.23;;
26040;SDS011;13816;53.628;9.950;2023-02-15T17:38:27;46.87;;;30.17;;
26040;SDS011;13816;53.628;9.950;2023-02-15T17:40:53;42.03;;;29.50;;
26040;SDS011;13816;53.628;9.950;2023-02-15T17:43:19;40.30;;;28.63;;
26040;SDS011;13816;53.628;9.950;2023-02-15T17:45:49;37.63;;;28.67;;
26040;SDS011;13816;53.628;9.950;2023-02-15T17:48:22;38.87;;;28.73;;
26040;SDS011;13816;53.628;9.950;2023-02-15T17:50:50;39.87;;;29.03;;
26040;SDS011;13816;53.628;9.950;2023-02-15T17:53:22;37.77;;;27.37;;
26040;SDS011;13816;53.628;9.950;2023-02-15T17:55:50;41.23;;;28.90;;
26040;SDS011;13816;53.628;9.950;2023-02-15T17:58:16;36.87;;;26.87;;
26040;SDS011;13816;53.628;9.950;2023-02-15T18:03:48;38.60;;;28.70;;
26040;SDS011;13816;53.628;9.950;2023-02-15T18:06:40;39.33;;;28.33;;
26040;SDS011;13816;53.628;9.950;2023-02-15T18:09:26;42.60;;;29.37;;
26040;SDS011;13816;53.628;9.950;2023-02-15T18:12:18;36.40;;;28.23;;
26040;SDS011;13816;53.628;9.950;2023-02-15T18:14:45;40.70;;;29.17;;
26040;SDS011;13816;53.628;9.950;2023-02-15T18:17:14;46.57;;;32.00;;
26040;SDS011;13816;53.628;9.950;2023-02-15T18:19:41;44.23;;;30.13;;
26040;SDS011;13816;53.628;9.950;2023-02-15T18:22:12;51.80;;;30.10;;